Time;durP1;ratioP1;P1;durP2;ratioP2;P2;SDS_P1;SDS_P2;PMS_P1;PMS_P2;Temp;Humidity;BMP_temperature;BMP_pressure;BME280_temperature;BME280_humidity;BME280_pressure;Samples;Min_cycle;Max_cycle;Signal;HPM_P1;HPM_P2
2023/12/19 00:01:43;;;;;;;;;;;-0.10;89.20;;;;;;5000965;28;81725;-47
2023/12/19 00:04:09;;;;;;;;;;;-0.10;89.20;;;;;;4997266;28;83384;-47
2023/12/19 00:06:34;;;;;;;;;;;-0.10;88.90;;;;;;4997624;28;82001;-48
2023/12/19 00:09:00;;;;;;;;;;;-0.10;89.00;;;;;;4999654;28;82017;-48
2023/12/19 00:11:25;;;;;;;;;;;-0.10;89.10;;;;;;4999983;28;82376;-48
2023/12/19 00:13:51;;;;;;;;;;;-0.10;89.10;;;;;;4996881;28;82005;-47
2023/12/19 00:16:17;;;;;;;;;;;-0.10;89.20;;;;;;5000652;28;81961;-49
2023/12/19 00:18:42;;;;;;;;;;;-0.20;89.10;;;;;;5001553;28;83464;-47
2023/12/19 00:21:08;;;;;;;;;;;-0.10;89.20;;;;;;5003094;28;81188;-47
2023/12/19 00:23:33;;;;;;;;;;;-0.10;89.20;;;;;;4997759;28;82597;-49
2023/12/19 00:25:59;;;;;;;;;;;-0.20;89.00;;;;;;5005775;28;82076;-48
2023/12/19 00:28:27;;;;;;;;;;;-0.20;89.00;;;;;;5003358;28;82836;-47
2023/12/19 00:30:55;;;;;;;;;;;-0.10;89.00;;;;;;5000255;28;81840;-47
2023/12/19 00:33:21;;;;;;;;;;;-0.20;89.10;;;;;;5005736;28;82110;-48
2023/12/19 00:35:47;;;;;;;;;;;-0.10;89.00;;;;;;5004011;28;81863;-48
2023/12/19 00:38:13;;;;;;;;;;;-0.20;89.20;;;;;;5003925;28;81867;-48
2023/12/19 00:40:38;;;;;;;;;;;-0.20;89.10;;;;;;5001417;28;81850;-47
2023/12/19 00:43:04;;;;;;;;;;;-0.20;89.10;;;;;;5007183;28;82245;-47
2023/12/19 00:45:29;;;;;;;;;;;-0.20;89.20;;;;;;5006376;28;81281;-48
2023/12/19 00:47:55;;;;;;;;;;;-0.20;89.10;;;;;;5002332;28;82000;-48
2023/12/19 00:50:21;;;;;;;;;;;-0.20;89.30;;;;;;5002267;28;83524;-47
2023/12/19 00:52:46;;;;;;;;;;;-0.20;89.20;;;;;;5001790;28;82951;-48
2023/12/19 00:55:12;;;;;;;;;;;-0.20;89.30;;;;;;5005105;28;81939;-47
2023/12/19 00:57:37;;;;;;;;;;;-0.20;89.10;;;;;;5002948;28;83354;-49
2023/12/19 01:00:03;;;;;;;;;;;-0.20;89.20;;;;;;5003416;28;81941;-46
2023/12/19 01:02:31;;;;;;;;;;;-0.20;89.20;;;;;;5005438;28;81869;-47
2023/12/19 01:04:57;;;;;;;;;;;-0.20;89.20;;;;;;5003969;28;82007;-48
2023/12/19 01:07:26;;;;;;;;;;;-0.30;89.10;;;;;;5002536;28;82931;-46
2023/12/19 01:09:52;;;;;;;;;;;-0.30;89.20;;;;;;5002138;28;81701;-50
2023/12/19 01:12:18;;;;;;;;;;;-0.30;89.20;;;;;;4999963;28;81883;-47
2023/12/19 01:14:44;;;;;;;;;;;-0.30;89.20;;;;;;4995879;28;81906;-46
2023/12/19 01:17:09;;;;;;;;;;;-0.30;89.30;;;;;;5001715;28;83006;-47
2023/12/19 01:19:35;;;;;;;;;;;-0.30;89.20;;;;;;5000410;28;81732;-48
2023/12/19 01:22:00;;;;;;;;;;;-0.30;89.40;;;;;;5002724;28;82685;-48
2023/12/19 01:24:26;;;;;;;;;;;-0.30;89.40;;;;;;5006234;28;82399;-49
2023/12/19 01:26:52;;;;;;;;;;;-0.30;89.30;;;;;;5003170;28;82927;-47
2023/12/19 01:29:18;;;;;;;;;;;-0.30;89.20;;;;;;5000612;28;82396;-47
2023/12/19 01:31:43;;;;;;;;;;;-0.30;89.40;;;;;;5000040;28;82388;-48
2023/12/19 01:34:09;;;;;;;;;;;-0.30;89.20;;;;;;5002862;28;81843;-50
2023/12/19 01:36:37;;;;;;;;;;;-0.30;89.20;;;;;;4999171;28;83648;-47
2023/12/19 01:39:03;;;;;;;;;;;-0.30;89.30;;;;;;4999233;28;81985;-47
2023/12/19 01:41:28;;;;;;;;;;;-0.30;89.30;;;;;;5000583;28;82767;-48
2023/12/19 01:44:00;;;;;;;;;;;-0.30;89.40;;;;;;5002817;28;82482;-47
2023/12/19 01:46:26;;;;;;;;;;;-0.30;89.30;;;;;;5001940;28;81978;-47
2023/12/19 01:48:51;;;;;;;;;;;-0.30;89.50;;;;;;5002782;28;83249;-47
2023/12/19 01:51:17;;;;;;;;;;;-0.30;89.30;;;;;;4999019;28;81864;-49
2023/12/19 01:53:44;;;;;;;;;;;-0.30;89.20;;;;;;5003234;28;81920;-48
2023/12/19 01:56:11;;;;;;;;;;;-0.30;89.20;;;;;;5001135;28;83444;-47
2023/12/19 01:58:37;;;;;;;;;;;-0.30;89.40;;;;;;5001899;28;81224;-48
2023/12/19 02:01:02;;;;;;;;;;;-0.40;89.40;;;;;;4998711;28;81869;-47
2023/12/19 02:03:28;;;;;;;;;;;-0.40;89.30;;;;;;5000448;28;83366;-50
2023/12/19 02:05:54;;;;;;;;;;;-0.40;89.40;;;;;;4996608;28;82881;-48
2023/12/19 02:08:21;;;;;;;;;;;-0.40;89.20;;;;;;5002372;28;82654;-48
2023/12/19 02:10:47;;;;;;;;;;;-0.40;89.30;;;;;;4999707;28;81850;-47
2023/12/19 02:13:12;;;;;;;;;;;-0.40;89.40;;;;;;5004808;28;82467;-47
2023/12/19 02:15:38;;;;;;;;;;;-0.40;89.40;;;;;;5002041;28;83331;-47
2023/12/19 02:18:16;;;;;;;;;;;-0.40;89.40;;;;;;5006403;28;81870;-49
2023/12/19 02:20:42;;;;;;;;;;;-0.40;89.40;;;;;;4998496;28;82395;-47
2023/12/19 02:23:08;;;;;;;;;;;-0.40;89.50;;;;;;5004872;28;81989;-47
2023/12/19 02:25:33;;;;;;;;;;;-0.40;89.50;;;;;;5003906;28;81976;-47
2023/12/19 02:28:00;;;;;;;;;;;-0.40;89.40;;;;;;5003841;28;81882;-48
2023/12/19 02:30:26;;;;;;;;;;;-0.40;89.30;;;;;;5001089;28;82761;-47
2023/12/19 02:32:52;;;;;;;;;;;-0.40;89.40;;;;;;4998712;28;82403;-48
2023/12/19 02:35:17;;;;;;;;;;;-0.40;89.30;;;;;;5002266;28;82462;-47
2023/12/19 02:37:43;;;;;;;;;;;-0.40;89.30;;;;;;5002450;28;81772;-47
2023/12/19 02:40:10;;;;;;;;;;;-0.40;89.40;;;;;;4998611;28;81820;-48
2023/12/19 02:42:42;;;;;;;;;;;-0.40;89.40;;;;;;4996948;28;83510;-48
2023/12/19 02:45:11;;;;;;;;;;;-0.40;89.40;;;;;;5000932;28;82047;-47
2023/12/19 02:47:37;;;;;;;;;;;-0.40;89.40;;;;;;5005175;28;81830;-47
2023/12/19 02:50:02;;;;;;;;;;;-0.40;89.40;;;;;;5006745;28;82409;-47
2023/12/19 02:52:28;;;;;;;;;;;-0.40;89.40;;;;;;5001865;28;81996;-50
2023/12/19 02:54:53;;;;;;;;;;;-0.40;89.30;;;;;;5001522;28;83418;-47
2023/12/19 02:57:19;;;;;;;;;;;-0.40;89.30;;;;;;4998390;28;81760;-49
2023/12/19 02:59:44;;;;;;;;;;;-0.40;89.30;;;;;;5001265;28;81868;-49
2023/12/19 03:02:10;;;;;;;;;;;-0.50;89.20;;;;;;4997921;28;82429;-47
2023/12/19 03:04:37;;;;;;;;;;;-0.50;89.30;;;;;;4999098;28;81986;-48
2023/12/19 03:07:03;;;;;;;;;;;-0.50;89.50;;;;;;5002235;28;81943;-48
2023/12/19 03:09:28;;;;;;;;;;;-0.50;89.30;;;;;;5000078;28;83477;-47
2023/12/19 03:12:03;;;;;;;;;;;-0.50;89.40;;;;;;5003362;28;81628;-48
2023/12/19 03:14:36;;;;;;;;;;;-0.50;89.30;;;;;;4999171;28;83376;-47
2023/12/19 03:17:02;;;;;;;;;;;-0.50;89.50;;;;;;5002068;28;82058;-46
2023/12/19 03:19:28;;;;;;;;;;;-0.50;89.40;;;;;;5000089;28;82736;-48
2023/12/19 03:21:54;;;;;;;;;;;-0.50;89.40;;;;;;4995923;28;83567;-51
2023/12/19 03:24:20;;;;;;;;;;;-0.50;89.40;;;;;;5000142;28;81866;-49
2023/12/19 03:26:45;;;;;;;;;;;-0.50;89.50;;;;;;4997867;28;82001;-48
2023/12/19 03:29:11;;;;;;;;;;;-0.50;89.40;;;;;;5001794;28;82487;-49
2023/12/19 03:31:36;;;;;;;;;;;-0.50;89.40;;;;;;4999100;28;81876;-51
2023/12/19 03:34:02;;;;;;;;;;;-0.50;89.40;;;;;;5003332;28;83041;-47
2023/12/19 03:36:31;;;;;;;;;;;-0.50;89.40;;;;;;4998445;28;81204;-48
2023/12/19 03:38:56;;;;;;;;;;;-0.50;89.40;;;;;;4997843;28;82063;-48
2023/12/19 03:41:22;;;;;;;;;;;-0.60;89.30;;;;;;4997579;28;81799;-48
2023/12/19 03:43:47;;;;;;;;;;;-0.60;89.40;;;;;;4997176;28;82983;-47
2023/12/19 03:46:14;;;;;;;;;;;-0.60;89.40;;;;;;5001065;28;82742;-48
2023/12/19 03:48:41;;;;;;;;;;;-0.60;89.40;;;;;;4999915;28;83735;-46
2023/12/19 03:51:07;;;;;;;;;;;-0.60;89.40;;;;;;4997474;28;81904;-47
2023/12/19 03:53:33;;;;;;;;;;;-0.60;89.40;;;;;;5001176;28;83119;-47
2023/12/19 03:55:58;;;;;;;;;;;-0.60;89.30;;;;;;5002805;28;82396;-47
2023/12/19 03:58:24;;;;;;;;;;;-0.60;89.40;;;;;;4998945;28;81945;-47
2023/12/19 04:00:50;;;;;;;;;;;-0.60;89.40;;;;;;5002416;28;81755;-47
2023/12/19 04:03:15;;;;;;;;;;;-0.60;89.40;;;;;;5001658;28;82039;-49
2023/12/19 04:05:41;;;;;;;;;;;-0.60;89.40;;;;;;5000980;28;81834;-47
2023/12/19 04:08:06;;;;;;;;;;;-0.60;89.30;;;;;;5003787;28;83403;-48
2023/12/19 04:10:32;;;;;;;;;;;-0.60;89.40;;;;;;5000650;28;81751;-46
2023/12/19 04:12:57;;;;;;;;;;;-0.60;89.30;;;;;;5004456;28;81867;-47
2023/12/19 04:15:24;;;;;;;;;;;-0.60;89.40;;;;;;5003489;28;83406;-47
2023/12/19 04:17:49;;;;;;;;;;;-0.60;89.40;;;;;;5006490;28;82019;-49
2023/12/19 04:20:15;;;;;;;;;;;-0.60;89.40;;;;;;5001696;28;82361;-47
2023/12/19 04:22:41;;;;;;;;;;;-0.60;89.50;;;;;;5002839;28;81979;-47
2023/12/19 04:25:07;;;;;;;;;;;-0.70;89.40;;;;;;5004630;28;81073;-47
2023/12/19 04:27:33;;;;;;;;;;;-0.60;89.60;;;;;;5002340;28;81961;-50
2023/12/19 04:29:58;;;;;;;;;;;-0.60;89.50;;;;;;5010162;28;81929;-47
2023/12/19 04:32:24;;;;;;;;;;;-0.60;89.50;;;;;;5000048;28;83428;-48
2023/12/19 04:34:49;;;;;;;;;;;-0.70;89.40;;;;;;5004382;28;81819;-46
2023/12/19 04:37:15;;;;;;;;;;;-0.60;89.50;;;;;;5006763;28;81915;-48
2023/12/19 04:39:40;;;;;;;;;;;-0.60;89.40;;;;;;5002933;28;82237;-48
2023/12/19 04:42:07;;;;;;;;;;;-0.60;89.40;;;;;;4999895;28;82063;-48
2023/12/19 04:44:33;;;;;;;;;;;-0.70;89.30;;;;;;5000296;28;82944;-47
2023/12/19 04:46:59;;;;;;;;;;;-0.60;89.40;;;;;;5002928;28;82352;-48
2023/12/19 04:49:24;;;;;;;;;;;-0.70;89.30;;;;;;5001397;28;81224;-50
2023/12/19 04:51:51;;;;;;;;;;;-0.70;89.20;;;;;;5002415;28;81966;-48
2023/12/19 04:54:17;;;;;;;;;;;-0.70;89.40;;;;;;5001976;28;83416;-47
2023/12/19 04:56:42;;;;;;;;;;;-0.70;89.40;;;;;;5005520;28;82780;-48
2023/12/19 04:59:08;;;;;;;;;;;-0.70;89.40;;;;;;5007915;28;82668;-46
2023/12/19 05:01:34;;;;;;;;;;;-0.70;89.30;;;;;;5003887;28;81967;-47
2023/12/19 05:03:59;;;;;;;;;;;-0.70;89.40;;;;;;5007075;28;82803;-47
2023/12/19 05:06:25;;;;;;;;;;;-0.70;89.40;;;;;;5004055;28;82363;-48
2023/12/19 05:08:51;;;;;;;;;;;-0.70;89.40;;;;;;5000375;28;82127;-47
2023/12/19 05:11:16;;;;;;;;;;;-0.70;89.50;;;;;;5002749;28;81990;-48
2023/12/19 05:13:42;;;;;;;;;;;-0.70;89.50;;;;;;5001315;28;81014;-48
2023/12/19 05:16:13;;;;;;;;;;;-0.70;89.40;;;;;;5001408;28;81985;-46
2023/12/19 05:18:42;;;;;;;;;;;-0.70;89.50;;;;;;4998472;28;83206;-48
2023/12/19 05:21:08;;;;;;;;;;;-0.70;89.40;;;;;;5003458;28;82784;-46
2023/12/19 05:23:37;;;;;;;;;;;-0.70;89.50;;;;;;5005255;28;83012;-47
2023/12/19 05:26:03;;;;;;;;;;;-0.70;89.40;;;;;;5002678;28;82405;-47
2023/12/19 05:28:29;;;;;;;;;;;-0.70;89.40;;;;;;5004344;28;81971;-47
2023/12/19 05:30:56;;;;;;;;;;;-0.80;89.40;;;;;;5000841;28;81895;-48
2023/12/19 05:33:28;;;;;;;;;;;-0.80;89.50;;;;;;5002048;28;83512;-47
2023/12/19 05:35:54;;;;;;;;;;;-0.70;89.50;;;;;;5006185;28;81859;-48
2023/12/19 05:38:20;;;;;;;;;;;-0.80;89.40;;;;;;5004957;28;82869;-47
2023/12/19 05:40:46;;;;;;;;;;;-0.70;89.40;;;;;;5003323;28;82669;-47
2023/12/19 05:43:14;;;;;;;;;;;-0.80;89.30;;;;;;5005732;28;81854;-47
2023/12/19 05:45:40;;;;;;;;;;;-0.80;89.40;;;;;;4999027;28;83255;-47
2023/12/19 05:48:06;;;;;;;;;;;-0.80;89.30;;;;;;5007141;28;81985;-45
2023/12/19 05:50:32;;;;;;;;;;;-0.80;89.40;;;;;;4999348;28;81974;-48
2023/12/19 05:52:57;;;;;;;;;;;-0.80;89.30;;;;;;5000496;28;81969;-47
2023/12/19 05:55:23;;;;;;;;;;;-0.80;89.30;;;;;;5005881;28;82116;-47
2023/12/19 05:57:49;;;;;;;;;;;-0.80;89.30;;;;;;4995399;28;83152;-47
2023/12/19 06:00:15;;;;;;;;;;;-0.80;89.40;;;;;;4999941;28;82627;-47
2023/12/19 06:02:41;;;;;;;;;;;-0.80;89.60;;;;;;5001687;28;81237;-47
2023/12/19 06:05:07;;;;;;;;;;;-0.80;89.40;;;;;;5002765;28;81845;-52
2023/12/19 06:07:34;;;;;;;;;;;-0.80;89.40;;;;;;5000295;28;81994;-47
2023/12/19 06:10:00;;;;;;;;;;;-0.80;89.40;;;;;;4996364;28;82972;-47
2023/12/19 06:12:25;;;;;;;;;;;-0.80;89.50;;;;;;4998668;28;82362;-47
2023/12/19 06:14:51;;;;;;;;;;;-0.90;89.30;;;;;;5006959;28;81843;-48
2023/12/19 06:17:16;;;;;;;;;;;-0.90;89.50;;;;;;5002708;28;82672;-47
2023/12/19 06:19:42;;;;;;;;;;;-0.90;89.40;;;;;;4999720;28;82276;-47
2023/12/19 06:22:10;;;;;;;;;;;-0.90;89.40;;;;;;5001835;28;82026;-46
2023/12/19 06:24:35;;;;;;;;;;;-0.90;89.30;;;;;;5001313;28;82900;-47
2023/12/19 06:27:01;;;;;;;;;;;-0.90;89.30;;;;;;5000254;28;82736;-49
2023/12/19 06:29:26;;;;;;;;;;;-0.90;89.40;;;;;;5001422;28;81763;-50
2023/12/19 06:31:52;;;;;;;;;;;-0.80;89.40;;;;;;4996737;28;82256;-47
2023/12/19 06:34:17;;;;;;;;;;;-0.80;89.50;;;;;;5001988;28;82892;-47
2023/12/19 06:36:44;;;;;;;;;;;-0.90;89.30;;;;;;4997475;28;82752;-48
2023/12/19 06:39:09;;;;;;;;;;;-0.90;89.20;;;;;;4998540;28;83547;-49
2023/12/19 06:41:35;;;;;;;;;;;-0.90;89.20;;;;;;4996168;28;81693;-47
2023/12/19 06:44:01;;;;;;;;;;;-0.90;89.20;;;;;;5005982;28;81902;-47
2023/12/19 06:46:27;;;;;;;;;;;-0.90;89.20;;;;;;5002809;28;82283;-47
2023/12/19 06:48:52;;;;;;;;;;;-0.90;89.30;;;;;;4995800;28;82865;-48
2023/12/19 06:51:21;;;;;;;;;;;-0.90;89.20;;;;;;4999852;28;81651;-47
2023/12/19 06:53:47;;;;;;;;;;;-0.90;89.30;;;;;;5003443;28;82461;-48
2023/12/19 06:56:12;;;;;;;;;;;-0.90;89.30;;;;;;5003102;28;82841;-47
2023/12/19 06:58:38;;;;;;;;;;;-0.90;89.30;;;;;;5000394;28;83177;-48
2023/12/19 07:01:04;;;;;;;;;;;-0.90;89.30;;;;;;5001846;28;81981;-49
2023/12/19 07:03:29;;;;;;;;;;;-0.90;89.30;;;;;;5001564;28;83049;-48
2023/12/19 07:05:56;;;;;;;;;;;-0.90;89.30;;;;;;5000242;28;83477;-47
2023/12/19 07:08:23;;;;;;;;;;;-0.90;89.30;;;;;;5002540;28;81945;-48
2023/12/19 07:10:49;;;;;;;;;;;-0.90;89.20;;;;;;4999321;28;83072;-48
2023/12/19 07:13:14;;;;;;;;;;;-0.90;89.20;;;;;;5003540;28;83192;-47
2023/12/19 07:15:40;;;;;;;;;;;-0.90;89.20;;;;;;4997110;28;81679;-47
2023/12/19 07:18:05;;;;;;;;;;;-0.90;89.20;;;;;;4995955;28;83602;-47
2023/12/19 07:20:31;;;;;;;;;;;-0.90;89.10;;;;;;5002188;28;82030;-47
2023/12/19 07:22:56;;;;;;;;;;;-0.90;89.20;;;;;;5000798;28;83563;-48
2023/12/19 07:25:22;;;;;;;;;;;-0.90;89.20;;;;;;5003190;28;84152;-49
2023/12/19 07:27:47;;;;;;;;;;;-0.90;89.30;;;;;;4997878;28;82608;-47
2023/12/19 07:30:13;;;;;;;;;;;-0.90;89.40;;;;;;5006041;28;82302;-48
2023/12/19 07:32:38;;;;;;;;;;;-0.90;89.30;;;;;;4997430;28;81897;-47
2023/12/19 07:35:08;;;;;;;;;;;-0.90;89.30;;;;;;5002181;28;81882;-47
2023/12/19 07:37:34;;;;;;;;;;;-0.90;89.30;;;;;;5000640;28;88290;-49
2023/12/19 07:39:59;;;;;;;;;;;-0.90;89.30;;;;;;4998651;28;86324;-48
2023/12/19 07:42:25;;;;;;;;;;;-0.90;89.40;;;;;;4999335;28;87383;-47
2023/12/19 07:44:51;;;;;;;;;;;-0.90;89.30;;;;;;4997475;28;87565;-46
2023/12/19 07:47:17;;;;;;;;;;;-0.90;89.20;;;;;;5001078;28;87953;-47
2023/12/19 07:49:42;;;;;;;;;;;-0.90;89.30;;;;;;4995013;28;87423;-47
2023/12/19 07:52:08;;;;;;;;;;;-0.90;89.30;;;;;;4996630;28;88477;-47
2023/12/19 07:54:34;;;;;;;;;;;-0.90;89.30;;;;;;5000536;28;87822;-50
2023/12/19 07:56:59;;;;;;;;;;;-0.90;89.30;;;;;;4998940;28;87467;-46
2023/12/19 07:59:25;;;;;;;;;;;-0.90;89.30;;;;;;5001740;28;87038;-47
2023/12/19 08:01:50;;;;;;;;;;;-0.90;89.30;;;;;;5001283;28;88000;-47
2023/12/19 08:04:16;;;;;;;;;;;-0.90;89.40;;;;;;5002436;28;87993;-47
2023/12/19 08:06:42;;;;;;;;;;;-0.90;89.40;;;;;;4994647;28;87012;-46
2023/12/19 08:09:13;;;;;;;;;;;-0.90;89.20;;;;;;4996007;28;87948;-47
2023/12/19 08:11:39;;;;;;;;;;;-0.90;89.20;;;;;;4998980;28;89475;-47
2023/12/19 08:14:05;;;;;;;;;;;-0.90;89.30;;;;;;5006196;28;87475;-47
2023/12/19 08:16:30;;;;;;;;;;;-0.90;89.20;;;;;;5000177;28;88605;-48
2023/12/19 08:18:56;;;;;;;;;;;-0.90;89.20;;;;;;4997523;28;87032;-48
2023/12/19 08:21:22;;;;;;;;;;;-0.90;89.30;;;;;;4997315;28;86983;-47
2023/12/19 08:23:48;;;;;;;;;;;-0.90;89.20;;;;;;4998258;28;87416;-47
2023/12/19 08:26:14;;;;;;;;;;;-0.90;89.30;;;;;;4999388;28;87324;-47
2023/12/19 08:28:39;;;;;;;;;;;-0.90;89.20;;;;;;4998147;28;88165;-46
2023/12/19 08:31:05;;;;;;;;;;;-0.90;89.30;;;;;;5002506;28;87649;-47
2023/12/19 08:33:30;;;;;;;;;;;-0.90;89.20;;;;;;4996925;28;87016;-48
2023/12/19 08:35:56;;;;;;;;;;;-0.90;89.20;;;;;;4998988;28;88818;-47
2023/12/19 08:38:21;;;;;;;;;;;-0.90;89.80;;;;;;4997706;28;87226;-46
2023/12/19 08:40:47;;;;;;;;;;;-0.90;89.20;;;;;;5003657;28;87833;-45
2023/12/19 08:43:12;;;;;;;;;;;-0.90;89.20;;;;;;5000570;28;87026;-47
2023/12/19 08:45:38;;;;;;;;;;;-0.90;89.20;;;;;;4996353;28;86968;-48
2023/12/19 08:48:04;;;;;;;;;;;-1.00;89.10;;;;;;4996067;28;87823;-46
2023/12/19 08:50:30;;;;;;;;;;;-0.90;89.20;;;;;;5006182;28;90033;-49
2023/12/19 08:52:56;;;;;;;;;;;-0.90;89.20;;;;;;5002361;28;86634;-47
2023/12/19 08:55:22;;;;;;;;;;;-0.90;89.20;;;;;;5000034;28;87409;-48
2023/12/19 08:57:48;;;;;;;;;;;-0.90;89.20;;;;;;4998405;28;87222;-46
2023/12/19 09:00:19;;;;;;;;;;;-0.90;89.20;;;;;;4998834;28;87905;-47
2023/12/19 09:02:46;;;;;;;;;;;-0.90;89.20;;;;;;4998614;28;88608;-46
2023/12/19 09:05:12;;;;;;;;;;;-0.90;89.20;;;;;;4995843;28;87080;-47
2023/12/19 09:07:38;;;;;;;;;;;-0.90;89.20;;;;;;4994792;28;87863;-47
2023/12/19 09:10:05;;;;;;;;;;;-0.90;89.30;;;;;;5003124;28;88114;-48
2023/12/19 09:12:31;;;;;;;;;;;-0.90;89.20;;;;;;4999625;28;87109;-46
2023/12/19 09:14:56;;;;;;;;;;;-0.90;89.20;;;;;;4996636;28;86865;-47
2023/12/19 09:17:22;;;;;;;;;;;-0.90;89.20;;;;;;5003007;28;86802;-47
2023/12/19 09:19:47;;;;;;;;;;;-0.90;89.20;;;;;;5000125;28;87125;-50
2023/12/19 09:22:13;;;;;;;;;;;-0.90;89.20;;;;;;4998706;28;87178;-47
2023/12/19 09:24:38;;;;;;;;;;;-0.90;89.30;;;;;;4995078;28;88444;-46
2023/12/19 09:27:04;;;;;;;;;;;-0.90;89.30;;;;;;4999964;28;87718;-47
2023/12/19 09:29:30;;;;;;;;;;;-0.90;89.30;;;;;;4998566;28;88533;-50
2023/12/19 09:31:56;;;;;;;;;;;-0.90;89.20;;;;;;4998272;28;87139;-49
2023/12/19 09:34:21;;;;;;;;;;;-0.90;89.20;;;;;;4997739;28;86866;-50
2023/12/19 09:36:47;;;;;;;;;;;-0.90;89.10;;;;;;5002530;28;87285;-50
2023/12/19 09:39:15;;;;;;;;;;;-0.90;89.20;;;;;;5001531;28;86957;-47
2023/12/19 09:41:42;;;;;;;;;;;-0.90;89.40;;;;;;4996920;28;86694;-47
2023/12/19 09:44:07;;;;;;;;;;;-0.90;89.30;;;;;;5004920;28;87113;-47
2023/12/19 09:46:33;;;;;;;;;;;-0.90;89.30;;;;;;4996258;28;86972;-46
2023/12/19 09:49:00;;;;;;;;;;;-0.90;89.30;;;;;;4997529;28;89184;-47
2023/12/19 09:51:37;;;;;;;;;;;-0.90;89.30;;;;;;4999450;28;87861;-48
2023/12/19 09:54:02;;;;;;;;;;;-0.90;89.30;;;;;;5000325;28;87053;-47
2023/12/19 09:56:28;;;;;;;;;;;-0.80;89.20;;;;;;4998113;28;87401;-47
2023/12/19 09:59:00;;;;;;;;;;;-0.90;89.10;;;;;;5004833;28;87051;-46
2023/12/19 10:01:26;;;;;;;;;;;-0.80;89.00;;;;;;5004110;28;87927;-48
2023/12/19 10:03:55;;;;;;;;;;;-0.80;89.00;;;;;;4999377;28;86992;-47
2023/12/19 10:06:24;;;;;;;;;;;-0.80;89.10;;;;;;4997333;28;88040;-46
2023/12/19 10:08:52;;;;;;;;;;;-0.80;89.10;;;;;;4996873;28;87284;-47
2023/12/19 10:11:18;;;;;;;;;;;-0.80;88.90;;;;;;4998804;28;87402;-47
2023/12/19 10:13:43;;;;;;;;;;;-0.80;89.00;;;;;;4993786;28;88027;-47
2023/12/19 10:16:11;;;;;;;;;;;-0.80;88.80;;;;;;4995434;28;87469;-48
2023/12/19 10:18:38;;;;;;;;;;;-0.70;88.90;;;;;;4995584;28;87055;-52
2023/12/19 10:21:08;;;;;;;;;;;-0.70;88.90;;;;;;4998361;28;87816;-49
2023/12/19 10:23:43;;;;;;;;;;;-0.70;88.70;;;;;;5005015;28;88658;-47
2023/12/19 10:26:09;;;;;;;;;;;-0.70;88.80;;;;;;4997995;28;86902;-47
2023/12/19 10:28:38;;;;;;;;;;;-0.60;88.80;;;;;;5001828;28;87652;-49
2023/12/19 10:31:17;;;;;;;;;;;-0.60;88.90;;;;;;4996866;28;86204;-47
2023/12/19 10:33:46;;;;;;;;;;;-0.60;88.50;;;;;;4996773;28;87499;-48
2023/12/19 10:36:28;;;;;;;;;;;-0.60;88.60;;;;;;4998356;28;87523;-49
2023/12/19 10:38:54;;;;;;;;;;;-0.60;88.60;;;;;;4995771;28;87916;-48
2023/12/19 10:41:24;;;;;;;;;;;-0.60;88.70;;;;;;4997286;28;89034;-48
2023/12/19 10:43:50;;;;;;;;;;;-0.60;88.60;;;;;;4996107;28;87388;-48
2023/12/19 10:46:18;;;;;;;;;;;-0.60;88.40;;;;;;5000582;28;86851;-49
2023/12/19 10:48:43;;;;;;;;;;;-0.60;88.80;;;;;;4998304;28;88468;-49
2023/12/19 10:51:10;;;;;;;;;;;-0.60;88.30;;;;;;4997093;28;87013;-48
2023/12/19 10:53:36;;;;;;;;;;;-0.50;88.50;;;;;;4996297;28;87887;-49
2023/12/19 10:56:03;;;;;;;;;;;-0.50;89.00;;;;;;5001661;28;86802;-50
2023/12/19 10:58:28;;;;;;;;;;;-0.50;88.10;;;;;;4995212;28;87230;-50
2023/12/19 11:00:55;;;;;;;;;;;-0.50;88.20;;;;;;4995967;28;87812;-48
2023/12/19 11:03:28;;;;;;;;;;;-0.50;87.90;;;;;;4998646;28;88357;-48
2023/12/19 11:05:55;;;;;;;;;;;-0.50;87.90;;;;;;5002242;28;86983;-48
2023/12/19 11:08:22;;;;;;;;;;;-0.50;89.00;;;;;;4997269;28;87601;-48
2023/12/19 11:10:59;;;;;;;;;;;-0.50;87.80;;;;;;4998125;28;87059;-51
2023/12/19 11:13:25;;;;;;;;;;;-0.50;88.10;;;;;;4999724;28;87971;-48
2023/12/19 11:15:56;;;;;;;;;;;-0.50;88.10;;;;;;5002583;28;87586;-49
2023/12/19 11:18:28;;;;;;;;;;;-0.40;88.30;;;;;;4998422;28;86971;-48
2023/12/19 11:21:00;;;;;;;;;;;-0.40;88.10;;;;;;4993046;28;87879;-49
2023/12/19 11:23:44;;;;;;;;;;;-0.50;88.70;;;;;;4995944;28;87059;-49
2023/12/19 11:26:23;;;;;;;;;;;-0.50;88.50;;;;;;4999017;28;87113;-48
2023/12/19 11:28:48;;;;;;;;;;;-0.50;88.90;;;;;;4996394;28;88945;-51
2023/12/19 11:31:27;;;;;;;;;;;-0.50;88.20;;;;;;4997518;28;86933;-48
2023/12/19 11:33:52;;;;;;;;;;;-0.50;88.50;;;;;;4995657;28;87880;-49
2023/12/19 11:36:18;;;;;;;;;;;-0.50;88.40;;;;;;4997600;28;87429;-49
2023/12/19 11:41:39;;;;;;;;;;;-0.40;88.30;;;;;;4997766;28;87816;-49
2023/12/19 11:44:05;;;;;;;;;;;-0.40;88.40;;;;;;4993937;28;88538;-50
2023/12/19 11:46:30;;;;;;;;;;;-0.50;88.30;;;;;;4995472;28;86296;-48
2023/12/19 11:48:56;;;;;;;;;;;-0.50;88.80;;;;;;4997310;28;87028;-49
2023/12/19 11:51:41;;;;;;;;;;;-0.40;88.60;;;;;;5000017;28;88416;-49
2023/12/19 11:54:10;;;;;;;;;;;-0.40;88.30;;;;;;4997159;28;87866;-51
2023/12/19 11:56:38;;;;;;;;;;;-0.40;88.60;;;;;;5001302;28;87414;-52
2023/12/19 11:59:03;;;;;;;;;;;-0.40;88.60;;;;;;4998869;28;87432;-50
2023/12/19 12:01:37;;;;;;;;;;;-0.40;88.70;;;;;;4994232;28;87064;-49
2023/12/19 12:04:03;;;;;;;;;;;-0.40;88.80;;;;;;4996237;28;87580;-48
2023/12/19 12:06:29;;;;;;;;;;;-0.40;88.70;;;;;;4997846;28;87010;-49
2023/12/19 12:08:54;;;;;;;;;;;-0.40;88.60;;;;;;4995999;28;87164;-49
2023/12/19 12:11:20;;;;;;;;;;;-0.30;88.70;;;;;;4998117;28;86635;-49
2023/12/19 12:13:59;;;;;;;;;;;-0.40;88.60;;;;;;5000187;28;87018;-50
2023/12/19 12:16:33;;;;;;;;;;;-0.40;88.60;;;;;;4993383;28;88115;-48
2023/12/19 12:19:08;;;;;;;;;;;-0.30;88.80;;;;;;4991220;28;87868;-48
2023/12/19 12:21:33;;;;;;;;;;;-0.40;88.70;;;;;;4999484;28;87725;-51
2023/12/19 12:23:59;;;;;;;;;;;-0.40;88.80;;;;;;4997724;28;87374;-49
2023/12/19 12:26:24;;;;;;;;;;;-0.40;88.80;;;;;;4995640;28;86860;-52
2023/12/19 12:28:50;;;;;;;;;;;-0.30;88.90;;;;;;4999831;28;87227;-49
2023/12/19 12:31:16;;;;;;;;;;;-0.30;88.90;;;;;;5000249;28;88491;-49
2023/12/19 12:33:41;;;;;;;;;;;-0.40;88.80;;;;;;4997848;28;86941;-48
2023/12/19 12:36:13;;;;;;;;;;;-0.30;88.80;;;;;;5000441;28;86759;-49
2023/12/19 12:38:39;;;;;;;;;;;-0.30;89.00;;;;;;4998937;28;86974;-49
2023/12/19 12:41:06;;;;;;;;;;;-0.30;89.00;;;;;;4999571;28;87509;-49
2023/12/19 12:43:33;;;;;;;;;;;-0.30;88.90;;;;;;5004738;28;89536;-51
2023/12/19 12:46:12;;;;;;;;;;;-0.20;88.80;;;;;;5000052;28;87013;-52
2023/12/19 12:48:58;;;;;;;;;;;-0.30;88.60;;;;;;4998122;28;87911;-49
2023/12/19 12:51:24;;;;;;;;;;;-0.20;88.80;;;;;;4997927;28;87468;-48
2023/12/19 12:53:54;;;;;;;;;;;-0.20;88.70;;;;;;5000317;28;87950;-49
2023/12/19 12:56:19;;;;;;;;;;;-0.20;88.60;;;;;;5002861;28;87999;-48
2023/12/19 12:58:46;;;;;;;;;;;-0.20;88.80;;;;;;5000103;28;86978;-50
2023/12/19 13:01:12;;;;;;;;;;;-0.20;88.70;;;;;;5002293;28;86784;-48
2023/12/19 13:03:37;;;;;;;;;;;-0.30;88.70;;;;;;5012285;28;88576;-49
2023/12/19 13:06:04;;;;;;;;;;;-0.20;89.10;;;;;;4993369;28;87199;-49
2023/12/19 13:08:33;;;;;;;;;;;-0.20;89.20;;;;;;4996115;28;87937;-49
2023/12/19 13:11:00;;;;;;;;;;;-0.20;88.80;;;;;;5000792;28;88443;-50
2023/12/19 13:13:26;;;;;;;;;;;-0.20;88.80;;;;;;5000019;28;86974;-50
2023/12/19 13:15:55;;;;;;;;;;;-0.20;88.80;;;;;;5003206;28;86942;-48
2023/12/19 13:18:23;;;;;;;;;;;-0.20;89.00;;;;;;4998828;28;88592;-51
2023/12/19 13:20:51;;;;;;;;;;;-0.10;89.10;;;;;;4996105;28;88193;-50
2023/12/19 13:23:17;;;;;;;;;;;-0.20;88.90;;;;;;4999394;28;88516;-50
2023/12/19 13:25:43;;;;;;;;;;;-0.20;88.80;;;;;;4996983;28;86287;-48
2023/12/19 13:28:09;;;;;;;;;;;-0.10;88.60;;;;;;4999714;28;87068;-50
2023/12/19 13:30:38;;;;;;;;;;;-0.10;89.00;;;;;;4999056;28;87782;-47
2023/12/19 13:33:08;;;;;;;;;;;-0.10;89.10;;;;;;4999828;28;88068;-48
2023/12/19 13:35:34;;;;;;;;;;;-0.10;88.70;;;;;;4999497;28;88498;-48
2023/12/19 13:37:59;;;;;;;;;;;-0.10;88.90;;;;;;4996425;28;87408;-49
2023/12/19 13:40:25;;;;;;;;;;;-0.10;88.70;;;;;;5000760;28;87458;-48
2023/12/19 13:42:51;;;;;;;;;;;-0.10;89.10;;;;;;5000256;28;87463;-49
2023/12/19 13:45:16;;;;;;;;;;;-0.10;89.10;;;;;;5000007;28;88165;-47
2023/12/19 13:47:42;;;;;;;;;;;0.00;88.80;;;;;;4999039;28;87183;-48
2023/12/19 13:50:08;;;;;;;;;;;-0.10;89.00;;;;;;4998933;28;86727;-48
2023/12/19 13:52:37;;;;;;;;;;;-0.10;89.10;;;;;;4999826;28;87185;-49
2023/12/19 13:55:03;;;;;;;;;;;-0.10;89.00;;;;;;4995357;28;87912;-49
2023/12/19 13:57:29;;;;;;;;;;;-0.10;88.70;;;;;;4994578;28;89475;-47
2023/12/19 13:59:55;;;;;;;;;;;0.00;89.10;;;;;;4995728;28;87002;-49
2023/12/19 14:02:22;;;;;;;;;;;0.00;88.90;;;;;;5004377;28;87256;-47
2023/12/19 14:04:48;;;;;;;;;;;0.00;88.80;;;;;;4997524;28;86989;-48
2023/12/19 14:07:16;;;;;;;;;;;0.00;89.20;;;;;;4998096;28;87886;-50
2023/12/19 14:09:42;;;;;;;;;;;0.00;89.20;;;;;;5000798;28;88505;-47
2023/12/19 14:12:07;;;;;;;;;;;0.00;89.10;;;;;;4997426;28;87048;-48
2023/12/19 14:14:33;;;;;;;;;;;0.00;88.90;;;;;;4998202;28;88235;-48
2023/12/19 14:16:59;;;;;;;;;;;0.10;89.00;;;;;;4999455;28;87426;-48
2023/12/19 14:19:24;;;;;;;;;;;0.10;89.10;;;;;;4998730;28;87169;-48